createdAt,value
2022-11-03T00:00:58.351Z,11.71
2022-11-03T00:04:01.124Z,11.50
2022-11-03T00:07:03.688Z,11.38
2022-11-03T00:10:06.893Z,11.33
2022-11-03T00:13:09.353Z,11.26
2022-11-03T00:16:12.656Z,11.19
2022-11-03T00:19:17.051Z,11.14
2022-11-03T00:22:19.896Z,11.02
2022-11-03T00:25:22.361Z,11.00
2022-11-03T00:28:25.081Z,10.99
2022-11-03T00:31:32.805Z,10.92
2022-11-03T00:34:35.894Z,10.82
2022-11-03T00:37:38.286Z,10.79
2022-11-03T00:40:41.004Z,10.73
2022-11-03T00:43:43.814Z,10.67
2022-11-03T00:46:46.485Z,10.69
2022-11-03T00:49:48.859Z,10.61
2022-11-03T00:52:51.528Z,10.53
2022-11-03T00:55:53.931Z,10.50
2022-11-03T00:58:58.488Z,10.39
2022-11-03T01:02:01.075Z,10.33
2022-11-03T01:05:22.891Z,10.55
2022-11-03T01:08:27.672Z,10.47
2022-11-03T01:11:45.985Z,10.49
2022-11-03T01:14:53.702Z,10.34
2022-11-03T01:17:56.437Z,10.49
2022-11-03T01:20:58.988Z,10.69
2022-11-03T01:24:02.731Z,10.72
2022-11-03T01:27:05.205Z,10.62
2022-11-03T01:30:08.228Z,10.59
2022-11-03T01:33:10.887Z,10.59
2022-11-03T01:36:14.770Z,10.63
2022-11-03T01:39:19.093Z,10.65
2022-11-03T01:42:21.770Z,10.57
2022-11-03T01:45:24.244Z,10.74
2022-11-03T01:48:27.856Z,10.72
2022-11-03T01:51:33.130Z,10.71
2022-11-03T01:54:38.014Z,10.67
2022-11-03T01:57:46.895Z,10.63
2022-11-03T02:00:54.593Z,10.71
2022-11-03T02:04:03.117Z,10.80
2022-11-03T02:07:14.902Z,10.69
2022-11-03T02:10:18.632Z,10.60
2022-11-03T02:13:23.876Z,10.49
2022-11-03T02:16:29.014Z,10.49
2022-11-03T02:19:36.219Z,10.28
2022-11-03T02:22:41.345Z,10.11
2022-11-03T02:25:48.609Z,10.07
2022-11-03T02:32:26.809Z,10.11
2022-11-03T02:35:35.522Z,10.03
2022-11-03T02:38:47.073Z,9.89
2022-11-03T02:41:52.686Z,9.85
2022-11-03T02:44:59.261Z,9.79
2022-11-03T02:48:04.052Z,9.65
2022-11-03T02:51:06.865Z,9.58
2022-11-03T02:54:20.068Z,9.50
2022-11-03T02:57:28.550Z,9.42
2022-11-03T03:00:35.347Z,9.38
2022-11-03T03:03:43.713Z,9.55
2022-11-03T03:06:54.613Z,9.60
2022-11-03T03:10:20.059Z,9.55
2022-11-03T03:13:24.594Z,9.60
2022-11-03T03:16:33.175Z,9.41
2022-11-03T03:19:53.084Z,9.26
2022-11-03T03:23:20.689Z,9.12
2022-11-03T03:26:31.332Z,9.00
2022-11-03T03:29:42.921Z,8.95
2022-11-03T03:32:47.819Z,8.83
2022-11-03T03:35:52.783Z,8.73
2022-11-03T03:39:02.641Z,8.66
2022-11-03T03:42:09.945Z,8.62
2022-11-03T03:45:13.209Z,8.51
2022-11-03T03:48:15.862Z,8.43
2022-11-03T03:51:22.683Z,8.39
2022-11-03T03:54:25.388Z,8.33
2022-11-03T03:57:31.574Z,8.29
2022-11-03T04:00:40.053Z,8.20
2022-11-03T04:03:42.773Z,8.12
2022-11-03T04:06:45.203Z,8.08
2022-11-03T04:09:48.130Z,8.07
2022-11-03T04:13:10.430Z,8.05
2022-11-03T04:16:31.985Z,8.02
2022-11-03T04:19:52.629Z,7.97
2022-11-03T04:22:55.345Z,7.91
2022-11-03T04:25:57.864Z,7.87
2022-11-03T04:29:02.649Z,7.92
2022-11-03T04:32:16.730Z,7.86
2022-11-03T04:35:21.734Z,7.86
2022-11-03T04:38:26.788Z,7.86
2022-11-03T04:41:33.008Z,7.87
2022-11-03T04:44:35.573Z,7.91
2022-11-03T04:47:38.306Z,7.91
2022-11-03T04:50:46.561Z,7.84
2022-11-03T04:54:01.667Z,7.78
2022-11-03T04:57:15.396Z,7.82
2022-11-03T05:00:19.272Z,7.76
2022-11-03T05:03:29.400Z,7.70
2022-11-03T05:06:32.217Z,7.71
2022-11-03T05:09:37.794Z,7.78
2022-11-03T05:12:43.770Z,7.80
2022-11-03T05:15:46.440Z,7.75
2022-11-03T05:18:50.297Z,7.73
2022-11-03T05:21:56.058Z,7.67
2022-11-03T05:25:02.357Z,7.71
2022-11-03T05:28:24.080Z,7.74
2022-11-03T05:31:29.924Z,7.71
2022-11-03T05:34:41.191Z,7.67
2022-11-03T05:37:43.938Z,7.65
2022-11-03T05:40:49.046Z,7.68
2022-11-03T05:44:01.361Z,7.70
2022-11-03T05:47:18.906Z,7.78
2022-11-03T05:50:30.755Z,7.76
2022-11-03T05:53:43.368Z,7.75
2022-11-03T05:56:47.051Z,7.76
2022-11-03T05:59:51.338Z,7.81
2022-11-03T06:02:55.298Z,7.87
2022-11-03T06:06:00.095Z,7.92
2022-11-03T06:09:09.441Z,8.01
2022-11-03T06:12:18.080Z,8.09
2022-11-03T06:15:28.960Z,8.14
2022-11-03T06:18:37.121Z,8.18
2022-11-03T06:21:44.384Z,8.24
2022-11-03T06:24:47.533Z,8.35
2022-11-03T06:27:51.117Z,8.41
2022-11-03T06:30:53.931Z,8.53
2022-11-03T06:33:58.344Z,8.64
2022-11-03T06:37:38.205Z,8.71
2022-11-03T06:40:41.188Z,8.85
2022-11-03T06:43:44.005Z,8.90
2022-11-03T06:46:46.581Z,8.96
2022-11-03T06:49:51.870Z,9.08
2022-11-03T06:52:56.873Z,9.11
2022-11-03T06:55:59.988Z,9.21
2022-11-03T06:59:02.807Z,9.33
2022-11-03T07:02:42.999Z,9.42
2022-11-03T07:05:45.473Z,9.58
2022-11-03T07:09:00.130Z,9.76
2022-11-03T07:12:03.262Z,9.87
2022-11-03T07:15:19.385Z,9.90
2022-11-03T07:18:26.021Z,9.96
2022-11-03T07:21:38.565Z,10.10
2022-11-03T07:24:44.571Z,10.16
2022-11-03T07:27:53.348Z,10.19
2022-11-03T07:30:56.044Z,10.35
2022-11-03T07:33:59.516Z,10.47
2022-11-03T07:37:02.357Z,10.68
2022-11-03T07:40:12.275Z,10.94
2022-11-03T07:43:35.760Z,11.07
2022-11-03T07:46:38.484Z,11.25
2022-11-03T07:49:42.444Z,11.30
2022-11-03T07:52:45.177Z,11.45
2022-11-03T07:55:48.946Z,11.52
2022-11-03T07:59:11.425Z,11.61
2022-11-03T08:02:30.633Z,11.79
2022-11-03T08:05:33.435Z,11.73
2022-11-03T08:08:36.263Z,11.56
2022-11-03T08:11:39.799Z,11.59
2022-11-03T08:14:42.245Z,11.77
2022-11-03T08:17:45.026Z,11.86
2022-11-03T08:20:47.493Z,11.89
2022-11-03T08:23:51.010Z,11.94
2022-11-03T08:26:53.503Z,11.84
2022-11-03T08:29:56.177Z,11.82
2022-11-03T08:32:59.083Z,11.82
2022-11-03T08:36:03.645Z,11.93
2022-11-03T08:39:06.086Z,12.07
2022-11-03T08:42:08.762Z,12.01
2022-11-03T08:45:11.455Z,12.04
2022-11-03T08:48:14.281Z,12.14
2022-11-03T08:51:16.850Z,12.30
2022-11-03T08:54:19.567Z,12.25
2022-11-03T08:57:21.971Z,12.22
2022-11-03T09:00:24.769Z,12.27
2022-11-03T09:03:27.231Z,12.32
2022-11-03T09:06:30.055Z,12.30
2022-11-03T09:12:55.920Z,12.38
2022-11-03T09:15:58.349Z,12.49
2022-11-03T09:19:01.182Z,12.65
2022-11-03T09:22:04.152Z,12.60
2022-11-03T09:25:07.590Z,12.65
2022-11-03T09:28:12.502Z,12.60
2022-11-03T09:31:15.388Z,12.75
2022-11-03T09:34:17.850Z,12.65
2022-11-03T09:37:20.653Z,12.59
2022-11-03T09:40:25.258Z,12.48
2022-11-03T09:43:28.096Z,12.38
2022-11-03T09:46:31.143Z,12.47
2022-11-03T09:49:35.022Z,12.46
2022-11-03T09:52:38.044Z,12.57
2022-11-03T09:55:40.934Z,12.48
2022-11-03T09:58:43.654Z,12.46
2022-11-03T10:01:50.017Z,12.41
2022-11-03T10:04:54.118Z,12.59
2022-11-03T10:08:01.322Z,12.67
2022-11-03T10:11:06.504Z,12.59
2022-11-03T10:14:13.420Z,12.65
2022-11-03T10:17:25.807Z,12.68
2022-11-03T10:20:29.284Z,12.69
2022-11-03T10:23:32.165Z,12.82
2022-11-03T10:26:45.036Z,12.81
2022-11-03T10:30:05.432Z,12.74
2022-11-03T10:33:34.442Z,12.77
2022-11-03T10:36:37.624Z,12.56
2022-11-03T10:39:40.299Z,12.45
2022-11-03T10:42:58.556Z,12.38
2022-11-03T10:49:47.614Z,12.61
2022-11-03T10:52:52.257Z,12.54
2022-11-03T10:55:55.957Z,12.55
2022-11-03T10:59:00.916Z,12.41
2022-11-03T11:02:13.565Z,12.40
2022-11-03T11:05:21.068Z,12.36
2022-11-03T11:08:24.467Z,12.40
2022-11-03T11:11:28.120Z,12.22
2022-11-03T11:14:30.835Z,12.26
2022-11-03T11:17:40.961Z,12.22
2022-11-03T11:20:43.886Z,12.29
2022-11-03T11:23:48.120Z,12.26
2022-11-03T11:26:51.185Z,12.31
2022-11-03T11:29:53.678Z,12.27
2022-11-03T11:32:59.288Z,12.41
2022-11-03T11:36:18.993Z,12.42
2022-11-03T11:39:27.854Z,12.42
2022-11-03T11:42:33.654Z,12.38
2022-11-03T11:46:16.925Z,12.40
2022-11-03T11:49:20.311Z,12.32
2022-11-03T11:52:23.203Z,12.37
2022-11-03T11:55:30.011Z,12.44
2022-11-03T11:58:42.537Z,12.45
2022-11-03T12:01:51.101Z,12.52
2022-11-03T12:05:03.160Z,12.63
2022-11-03T12:08:19.747Z,12.55
2022-11-03T12:11:55.443Z,12.62
2022-11-03T12:14:58.586Z,12.57
2022-11-03T12:18:35.084Z,12.54
2022-11-03T12:21:50.239Z,12.59
2022-11-03T12:24:57.626Z,12.55
2022-11-03T12:28:00.124Z,12.55
2022-11-03T12:31:04.062Z,12.55
2022-11-03T12:34:06.626Z,12.64
2022-11-03T12:37:09.702Z,12.67
2022-11-03T12:40:13.941Z,12.59
2022-11-03T12:43:17.256Z,12.57
2022-11-03T12:46:21.402Z,12.65
2022-11-03T12:49:24.237Z,12.63
2022-11-03T12:52:26.724Z,12.42
2022-11-03T12:55:29.505Z,12.41
2022-11-03T12:58:31.976Z,12.47
2022-11-03T13:01:35.073Z,12.47
2022-11-03T13:04:38.060Z,12.42
2022-11-03T13:07:42.098Z,12.36
2022-11-03T13:10:44.615Z,12.19
2022-11-03T13:13:47.357Z,12.13
2022-11-03T13:16:49.869Z,12.21
2022-11-03T13:19:54.768Z,12.11
2022-11-03T13:22:57.448Z,12.12
2022-11-03T13:26:00.246Z,12.07
2022-11-03T13:29:02.816Z,12.14
2022-11-03T13:32:06.183Z,12.13
2022-11-03T13:35:13.740Z,12.00
2022-11-03T13:38:16.807Z,11.94
2022-11-03T13:41:19.368Z,11.96
2022-11-03T13:44:22.231Z,11.96
2022-11-03T13:47:34.413Z,11.92
2022-11-03T13:50:50.950Z,11.98
2022-11-03T14:00:38.806Z,11.92
2022-11-03T14:07:04.376Z,11.86
2022-11-03T14:10:07.576Z,11.73
2022-11-03T14:13:10.315Z,11.73
2022-11-03T14:16:13.304Z,11.76
2022-11-03T14:19:15.761Z,11.78
2022-11-03T14:22:18.587Z,11.71
2022-11-03T14:25:21.039Z,11.72
2022-11-03T14:28:26.200Z,11.69
2022-11-03T14:31:29.000Z,11.62
2022-11-03T14:34:31.760Z,11.60
2022-11-03T14:37:34.625Z,11.62
2022-11-03T14:40:56.183Z,11.59
2022-11-03T14:43:58.717Z,11.61
2022-11-03T14:47:07.951Z,11.74
2022-11-03T14:50:10.376Z,11.69
2022-11-03T14:53:13.112Z,11.66
2022-11-03T14:56:15.578Z,11.65
2022-11-03T14:59:19.946Z,11.69
2022-11-03T15:02:22.480Z,11.62
2022-11-03T15:05:43.885Z,11.60
2022-11-03T15:08:48.930Z,11.60
2022-11-03T15:11:54.811Z,11.45
2022-11-03T15:14:57.363Z,11.44
2022-11-03T15:18:02.783Z,11.28
2022-11-03T15:21:06.065Z,11.18
2022-11-03T15:27:31.517Z,10.99
2022-11-03T15:30:35.481Z,10.84
2022-11-03T15:33:38.172Z,10.74
2022-11-03T15:36:40.965Z,10.61
2022-11-03T15:39:43.914Z,10.43
2022-11-03T15:42:47.696Z,10.26
2022-11-03T15:45:50.191Z,10.37
2022-11-03T15:48:54.561Z,10.31
2022-11-03T15:51:57.495Z,10.21
2022-11-03T15:55:00.376Z,10.10
2022-11-03T15:58:02.879Z,10.02
2022-11-03T16:01:05.728Z,9.95
2022-11-03T16:04:08.876Z,10.12
2022-11-03T16:07:11.469Z,9.99
2022-11-03T16:10:14.574Z,9.75
2022-11-03T16:13:17.260Z,9.70
2022-11-03T16:16:20.220Z,9.72
2022-11-03T16:19:22.881Z,9.63
2022-11-03T16:22:26.188Z,9.57
2022-11-03T16:25:28.896Z,9.60
2022-11-03T16:28:31.770Z,9.55
2022-11-03T16:31:34.328Z,9.50
2022-11-03T16:34:37.230Z,9.53
2022-11-03T16:37:40.130Z,9.31
2022-11-03T16:40:43.874Z,9.32
2022-11-03T16:43:48.053Z,9.29
2022-11-03T16:46:51.135Z,9.26
2022-11-03T16:49:53.828Z,9.32
2022-11-03T16:52:57.106Z,9.48
2022-11-03T16:56:00.798Z,9.45
2022-11-03T16:59:03.999Z,9.54
2022-11-03T17:02:09.764Z,9.56
2022-11-03T17:05:17.594Z,9.60
2022-11-03T17:11:44.143Z,9.73
2022-11-03T17:14:49.067Z,9.83
2022-11-03T17:17:54.315Z,9.82
2022-11-03T17:20:57.189Z,9.84
2022-11-03T17:24:00.324Z,9.93
2022-11-03T17:27:14.998Z,9.97
2022-11-03T17:30:29.549Z,9.93
2022-11-03T17:33:34.107Z,10.00
2022-11-03T17:36:37.188Z,10.00
2022-11-03T17:39:41.373Z,10.02
2022-11-03T17:42:44.635Z,10.03
2022-11-03T17:45:48.518Z,10.04
2022-11-03T17:49:03.534Z,10.05
2022-11-03T17:52:09.935Z,10.04
2022-11-03T17:55:27.586Z,10.11
2022-11-03T17:58:36.147Z,10.18
2022-11-03T18:01:39.225Z,10.17
2022-11-03T18:04:43.146Z,10.19
2022-11-03T18:07:45.825Z,10.23
2022-11-03T18:10:51.922Z,10.33
2022-11-03T18:13:54.718Z,10.27
2022-11-03T18:16:58.349Z,10.20
2022-11-03T18:20:01.835Z,10.16
2022-11-03T18:23:20.730Z,10.21
2022-11-03T18:26:25.800Z,10.20
2022-11-03T18:29:29.508Z,10.21
2022-11-03T18:32:35.613Z,10.29
2022-11-03T18:35:39.207Z,10.31
2022-11-03T18:38:44.632Z,10.37
2022-11-03T18:41:48.297Z,10.46
2022-11-03T18:44:51.024Z,10.47
2022-11-03T18:47:55.554Z,10.49
2022-11-03T18:50:59.269Z,10.41
2022-11-03T18:54:03.030Z,10.41
2022-11-03T18:57:06.094Z,10.34
2022-11-03T19:00:18.760Z,10.36
2022-11-03T19:03:23.847Z,10.40
2022-11-03T19:06:27.315Z,10.44
2022-11-03T19:09:30.127Z,10.45
2022-11-03T19:12:37.836Z,10.52
2022-11-03T19:15:42.007Z,10.60
2022-11-03T19:18:46.237Z,10.63
2022-11-03T19:21:49.435Z,10.70
2022-11-03T19:24:52.556Z,10.72
2022-11-03T19:27:56.600Z,10.78
2022-11-03T19:31:00.861Z,10.90
2022-11-03T19:34:06.179Z,10.90
2022-11-03T19:37:10.701Z,10.88
2022-11-03T19:40:18.998Z,10.95
2022-11-03T19:43:23.540Z,10.93
2022-11-03T19:46:26.855Z,10.94
2022-11-03T19:49:30.769Z,10.97
2022-11-03T19:52:34.722Z,10.95
2022-11-03T19:55:41.140Z,10.97
2022-11-03T19:58:44.020Z,10.98
2022-11-03T20:01:48.887Z,10.97
2022-11-03T20:04:53.899Z,11.01
2022-11-03T20:08:00.574Z,10.98
2022-11-03T20:11:05.672Z,11.01
2022-11-03T20:14:15.146Z,11.05
2022-11-03T20:17:19.956Z,11.10
2022-11-03T20:20:27.735Z,11.07
2022-11-03T20:23:34.217Z,11.09
2022-11-03T20:26:37.090Z,11.09
2022-11-03T20:29:40.359Z,11.14
2022-11-03T20:32:45.864Z,11.13
2022-11-03T20:35:50.148Z,11.13
2022-11-03T20:38:59.053Z,11.22
2022-11-03T20:42:02.091Z,11.20
2022-11-03T20:45:14.762Z,11.19
2022-11-03T20:48:17.869Z,11.19
2022-11-03T20:51:23.771Z,11.23
2022-11-03T20:54:26.774Z,11.15
2022-11-03T20:57:29.505Z,11.12
2022-11-03T21:00:32.801Z,11.08
2022-11-03T21:03:58.207Z,11.07
2022-11-03T21:06:59.747Z,11.11
2022-11-03T21:10:03.554Z,11.13
2022-11-03T21:13:13.591Z,11.09
2022-11-03T21:16:34.787Z,11.03
2022-11-03T21:19:56.747Z,11.05
2022-11-03T21:23:00.023Z,11.13
2022-11-03T21:26:02.846Z,11.03
2022-11-03T21:29:05.323Z,11.05
2022-11-03T21:32:12.914Z,11.09
2022-11-03T21:35:18.281Z,11.12
2022-11-03T21:38:21.424Z,11.15
2022-11-03T21:41:42.547Z,11.14
2022-11-03T21:44:45.254Z,11.17
2022-11-03T21:48:13.225Z,11.14
2022-11-03T21:51:18.341Z,11.14
2022-11-03T21:54:21.002Z,11.24
2022-11-03T21:57:23.672Z,11.16
2022-11-03T22:00:28.687Z,11.16
2022-11-03T22:03:32.777Z,11.23
2022-11-03T22:06:35.259Z,11.10
2022-11-03T22:09:38.096Z,11.13
2022-11-03T22:12:40.637Z,11.16
2022-11-03T22:16:01.806Z,11.12
2022-11-03T22:19:27.245Z,11.10
2022-11-03T22:22:48.473Z,11.12
2022-11-03T22:26:09.515Z,11.05
2022-11-03T22:29:30.910Z,11.05
2022-11-03T22:32:33.460Z,11.08
2022-11-03T22:35:54.639Z,11.05
2022-11-03T22:39:15.699Z,11.05
2022-11-03T22:42:37.052Z,10.99
2022-11-03T22:45:57.568Z,10.98
2022-11-03T22:49:00.240Z,11.00
2022-11-03T22:52:04.197Z,10.99
2022-11-03T22:55:07.233Z,10.92
2022-11-03T22:58:09.819Z,10.92
2022-11-03T23:01:15.463Z,10.83
2022-11-03T23:04:18.102Z,10.99
2022-11-03T23:07:20.864Z,11.02
2022-11-03T23:10:28.278Z,10.82
2022-11-03T23:13:31.035Z,10.79
2022-11-03T23:16:35.910Z,10.76
2022-11-03T23:19:57.496Z,10.80
2022-11-03T23:22:59.904Z,10.80
2022-11-03T23:26:02.754Z,10.77
2022-11-03T23:29:06.269Z,10.82
2022-11-03T23:32:09.007Z,10.76
2022-11-03T23:35:11.483Z,10.79
2022-11-03T23:38:14.480Z,10.81
2022-11-03T23:41:18.767Z,10.75
2022-11-03T23:44:21.525Z,10.78
2022-11-03T23:47:42.543Z,10.76
2022-11-03T23:50:45.387Z,10.77
2022-11-03T23:53:48.352Z,10.72
2022-11-03T23:57:09.707Z,10.70
